Time;durP1;ratioP1;P1;durP2;ratioP2;P2;SDS_P1;SDS_P2;PMS_P1;PMS_P2;Temp;Humidity;BMP_temperature;BMP_pressure;BME280_temperature;BME280_humidity;BME280_pressure;Samples;Min_cycle;Max_cycle;Signal;HPM_P1;HPM_P2
2022/12/29 00:01:33;;;;;;;72.90;46.88;;;11.80;1.00;;;;;;5027677;28;20152;-59
2022/12/29 00:03:59;;;;;;;75.25;47.20;;;11.90;1.00;;;;;;5031847;28;20163;-61
2022/12/29 00:06:25;;;;;;;74.35;46.38;;;11.90;1.00;;;;;;5044977;28;20052;-61
2022/12/29 00:08:51;;;;;;;67.63;46.92;;;11.90;1.00;;;;;;5026980;28;20130;-62
2022/12/29 00:11:19;;;;;;;74.82;47.88;;;11.80;1.00;;;;;;5028770;28;20041;-62
2022/12/29 00:16:30;;;;;;;75.65;49.50;;;11.90;1.00;;;;;;5032632;28;20031;-62
2022/12/29 00:18:56;;;;;;;78.88;50.67;;;11.80;1.00;;;;;;5024881;28;20392;-61
2022/12/29 00:35:31;;;;;;;76.13;50.38;;;11.80;1.00;;;;;;5030908;28;20466;-62
2022/12/29 00:51:26;;;;;;;73.57;49.47;;;11.80;1.00;;;;;;5033468;28;20110;-61
2022/12/29 00:53:51;;;;;;;72.88;49.63;;;11.80;1.00;;;;;;5033276;28;20040;-62
2022/12/29 00:56:17;;;;;;;74.82;49.22;;;11.90;1.00;;;;;;5035830;28;20513;-62
2022/12/29 00:58:42;;;;;;;68.60;47.65;;;11.80;1.00;;;;;;5035303;28;20021;-61
2022/12/29 01:01:09;;;;;;;77.07;48.40;;;11.80;1.00;;;;;;5033144;28;20037;-62
2022/12/29 01:03:36;;;;;;;74.50;49.05;;;11.80;1.00;;;;;;5036253;28;20025;-61
2022/12/29 01:06:07;;;;;;;71.43;49.13;;;11.80;1.00;;;;;;5036852;28;20026;-61
2022/12/29 01:08:34;;;;;;;74.45;48.50;;;11.80;1.00;;;;;;5035488;28;20083;-61
2022/12/29 01:11:05;;;;;;;73.18;49.00;;;11.70;1.00;;;;;;5025298;28;20471;-61
2022/12/29 01:13:31;;;;;;;68.70;45.70;;;11.60;1.00;;;;;;5035550;28;20112;-61
2022/12/29 01:15:57;;;;;;;71.68;47.25;;;11.70;1.00;;;;;;5031505;28;20072;-62
2022/12/29 01:18:24;;;;;;;76.63;50.00;;;11.60;1.00;;;;;;5035669;28;20041;-61
2022/12/29 01:20:49;;;;;;;77.18;49.00;;;11.60;1.00;;;;;;5032840;28;20042;-62
2022/12/29 01:23:16;;;;;;;74.43;48.40;;;11.70;1.00;;;;;;5035637;28;20505;-62
2022/12/29 01:25:41;;;;;;;70.20;47.80;;;11.60;1.00;;;;;;5031079;28;20018;-62
2022/12/29 01:28:10;;;;;;;75.70;49.55;;;11.60;1.00;;;;;;5026264;28;20116;-61
2022/12/29 01:30:35;;;;;;;73.20;47.38;;;11.60;1.00;;;;;;5034883;28;20045;-61
2022/12/29 01:33:07;;;;;;;70.57;47.90;;;11.70;1.00;;;;;;5035242;28;20468;-61
2022/12/29 01:35:33;;;;;;;71.10;46.90;;;11.70;1.00;;;;;;5034839;28;20029;-61
2022/12/29 01:37:58;;;;;;;70.70;45.50;;;11.70;1.00;;;;;;5026504;28;20083;-62
2022/12/29 01:40:24;;;;;;;71.53;46.42;;;11.70;1.00;;;;;;5033770;28;20057;-61
2022/12/29 01:42:50;;;;;;;63.25;43.28;;;11.40;1.00;;;;;;5027647;28;20048;-62
2022/12/29 01:45:17;;;;;;;74.65;47.45;;;11.50;1.00;;;;;;5028482;28;20049;-62
2022/12/29 01:47:54;;;;;;;77.15;48.97;;;11.50;1.00;;;;;;5034695;28;20559;-61
2022/12/29 01:50:37;;;;;;;68.78;46.30;;;11.60;1.00;;;;;;5025121;28;20483;-62
2022/12/29 01:53:10;;;;;;;65.90;44.72;;;11.60;1.00;;;;;;5032180;28;20069;-62
2022/12/29 01:55:44;;;;;;;68.60;45.45;;;11.60;1.00;;;;;;5031663;28;20029;-61
2022/12/29 01:58:12;;;;;;;68.65;46.53;;;11.70;1.00;;;;;;5033329;28;20013;-61
2022/12/29 02:00:38;;;;;;;68.75;44.45;;;11.60;1.00;;;;;;5034271;28;20472;-61
2022/12/29 02:03:04;;;;;;;74.35;48.03;;;11.60;1.00;;;;;;5032970;28;20076;-62
2022/12/29 02:05:50;;;;;;;71.50;46.20;;;11.60;1.00;;;;;;5029529;28;20033;-62
2022/12/29 02:08:16;;;;;;;72.45;44.83;;;11.50;1.00;;;;;;5034553;28;20025;-62
2022/12/29 02:10:43;;;;;;;68.15;44.78;;;11.60;1.00;;;;;;5033065;28;20029;-62
2022/12/29 02:13:09;;;;;;;72.13;47.50;;;11.60;1.00;;;;;;5032919;28;20047;-62
2022/12/29 02:15:53;;;;;;;67.15;44.60;;;11.50;1.00;;;;;;5032865;28;20538;-62
2022/12/29 02:18:31;;;;;;;67.53;44.57;;;11.60;1.00;;;;;;5034245;28;20026;-62
2022/12/29 02:21:27;;;;;;;68.30;44.47;;;11.60;1.00;;;;;;5031213;28;20514;-62
2022/12/29 02:24:37;;;;;;;70.68;43.95;;;11.50;1.00;;;;;;5019497;28;20044;-61
2022/12/29 02:27:31;;;;;;;71.00;45.42;;;11.40;1.00;;;;;;5032584;28;20033;-61
2022/12/29 02:30:19;;;;;;;69.50;45.88;;;11.30;1.00;;;;;;5027304;28;20492;-62
2022/12/29 02:33:11;;;;;;;70.00;43.45;;;11.50;1.00;;;;;;5030634;28;20057;-62
2022/12/29 02:35:58;;;;;;;70.38;46.17;;;11.60;1.00;;;;;;5025071;28;20502;-62
2022/12/29 02:38:30;;;;;;;66.65;44.47;;;11.50;1.00;;;;;;5032477;28;20265;-61
2022/12/29 02:41:04;;;;;;;68.50;44.92;;;11.50;1.00;;;;;;5019754;28;20045;-62
2022/12/29 02:43:36;;;;;;;68.68;45.10;;;11.40;1.00;;;;;;5033021;28;20030;-62
2022/12/29 02:46:11;;;;;;;70.35;46.60;;;11.30;1.00;;;;;;5032228;28;20105;-62
2022/12/29 02:48:45;;;;;;;65.10;43.47;;;11.50;1.00;;;;;;5033948;28;20026;-61
2022/12/29 02:51:49;;;;;;;67.93;44.53;;;11.50;1.00;;;;;;5033609;28;20025;-61
2022/12/29 02:57:12;;;;;;;67.25;43.58;;;11.50;1.00;;;;;;5031732;28;20044;-61
2022/12/29 02:59:38;;;;;;;64.75;43.42;;;11.60;1.00;;;;;;5030752;28;20032;-62
2022/12/29 03:02:16;;;;;;;65.90;42.97;;;11.60;1.00;;;;;;5033502;28;20100;-62
2022/12/29 03:04:50;;;;;;;70.90;42.92;;;11.60;1.00;;;;;;5025832;28;20399;-62
2022/12/29 03:07:41;;;;;;;62.10;41.25;;;11.40;1.00;;;;;;5031950;28;20468;-62
2022/12/29 03:10:37;;;;;;;62.40;41.97;;;11.50;1.00;;;;;;5024120;28;20033;-62
2022/12/29 03:16:45;;;;;;;61.38;41.28;;;11.50;1.00;;;;;;5028963;28;20056;-62
2022/12/29 03:19:23;;;;;;;60.13;40.13;;;11.40;1.00;;;;;;5033005;28;20065;-62
2022/12/29 03:24:50;;;;;;;55.95;38.10;;;11.50;1.00;;;;;;5031444;28;20036;-62
2022/12/29 03:27:25;;;;;;;54.47;37.85;;;11.40;1.00;;;;;;5019502;28;20022;-62
2022/12/29 03:29:55;;;;;;;59.20;38.85;;;11.10;1.00;;;;;;5031393;28;20115;-62
2022/12/29 03:32:25;;;;;;;58.28;37.63;;;11.30;1.00;;;;;;5019145;28;20103;-62
2022/12/29 03:34:53;;;;;;;57.88;37.95;;;11.40;1.00;;;;;;5032395;28;20029;-62
2022/12/29 03:37:23;;;;;;;53.70;37.53;;;11.40;1.00;;;;;;5032730;28;20049;-62
2022/12/29 03:39:49;;;;;;;57.08;40.72;;;11.40;1.00;;;;;;5023422;28;20088;-62
2022/12/29 03:42:19;;;;;;;54.55;37.17;;;11.20;1.00;;;;;;5032589;28;20433;-62
2022/12/29 03:44:46;;;;;;;57.90;38.17;;;11.30;1.00;;;;;;5024912;28;20090;-62
2022/12/29 03:47:14;;;;;;;58.75;38.92;;;11.30;1.00;;;;;;5028900;28;20034;-61
2022/12/29 03:49:40;;;;;;;56.80;37.17;;;11.40;1.00;;;;;;5027943;28;20037;-62
2022/12/29 03:52:05;;;;;;;62.50;38.53;;;11.40;1.00;;;;;;5028090;28;20039;-62
2022/12/29 03:54:32;;;;;;;56.97;39.05;;;11.40;1.00;;;;;;5032645;28;20030;-62
2022/12/29 03:56:57;;;;;;;53.33;37.95;;;11.40;1.00;;;;;;5032540;28;20359;-62
2022/12/29 03:59:23;;;;;;;51.60;37.50;;;11.50;1.00;;;;;;5030239;28;20045;-62
2022/12/29 04:01:49;;;;;;;60.58;40.80;;;11.50;1.00;;;;;;5025897;28;20034;-62
2022/12/29 04:04:15;;;;;;;54.65;38.95;;;11.40;1.00;;;;;;5030878;28;20021;-62
2022/12/29 04:06:40;;;;;;;55.15;37.65;;;11.40;1.00;;;;;;5032599;28;20120;-62
2022/12/29 04:09:06;;;;;;;58.90;38.55;;;11.50;1.00;;;;;;5032009;28;20036;-62
2022/12/29 04:11:32;;;;;;;53.72;38.10;;;11.50;1.00;;;;;;5032765;28;20194;-62
2022/12/29 04:13:58;;;;;;;56.42;39.10;;;11.50;1.00;;;;;;5031529;28;20068;-62
2022/12/29 04:16:24;;;;;;;58.10;39.15;;;11.50;1.00;;;;;;5032291;28;20036;-62
2022/12/29 04:18:49;;;;;;;55.97;40.35;;;11.50;1.00;;;;;;5031807;28;20074;-62
2022/12/29 04:21:15;;;;;;;56.55;39.67;;;11.40;1.00;;;;;;5031939;28;20171;-61
2022/12/29 04:23:40;;;;;;;63.67;40.22;;;11.50;1.00;;;;;;5031759;28;20069;-62
2022/12/29 04:26:07;;;;;;;57.00;39.58;;;11.50;1.00;;;;;;5019709;28;20034;-62
2022/12/29 04:28:33;;;;;;;62.35;40.75;;;11.60;1.00;;;;;;5032566;28;20045;-62
2022/12/29 04:30:59;;;;;;;56.97;39.42;;;11.50;1.00;;;;;;5031685;28;20475;-62
2022/12/29 04:33:25;;;;;;;58.45;39.70;;;11.50;1.00;;;;;;5032224;28;20033;-62
2022/12/29 04:35:54;;;;;;;55.05;39.42;;;11.60;1.00;;;;;;5029524;28;20025;-62
2022/12/29 04:38:22;;;;;;;56.97;39.05;;;11.50;1.00;;;;;;5031849;28;20103;-62
2022/12/29 04:40:49;;;;;;;57.50;41.33;;;11.50;1.00;;;;;;5030431;28;20038;-62
2022/12/29 04:43:15;;;;;;;58.00;40.13;;;11.50;1.00;;;;;;5027396;28;20032;-62
2022/12/29 04:45:45;;;;;;;59.47;40.03;;;11.50;1.00;;;;;;5020494;28;20426;-62
2022/12/29 04:48:10;;;;;;;60.50;40.40;;;11.50;1.00;;;;;;5027264;28;20507;-62
2022/12/29 04:50:36;;;;;;;58.90;41.20;;;11.60;1.00;;;;;;5030549;28;20026;-62
2022/12/29 04:53:02;;;;;;;59.72;39.78;;;11.60;1.00;;;;;;5027678;28;20028;-62
2022/12/29 04:55:27;;;;;;;61.15;41.05;;;11.60;1.00;;;;;;5030880;28;20484;-62
2022/12/29 04:57:54;;;;;;;61.13;40.20;;;11.60;1.00;;;;;;5029972;28;20450;-62
2022/12/29 05:00:20;;;;;;;61.47;43.20;;;11.50;1.00;;;;;;5031713;28;20030;-62
2022/12/29 05:02:46;;;;;;;58.67;40.72;;;11.60;1.00;;;;;;5031549;28;20033;-62
2022/12/29 05:06:01;;;;;;;55.67;40.92;;;11.60;1.00;;;;;;5021380;28;20083;-62
2022/12/29 05:08:27;;;;;;;58.63;39.28;;;11.60;1.00;;;;;;5028725;28;20037;-62
2022/12/29 05:10:53;;;;;;;60.03;41.17;;;11.60;1.00;;;;;;5031661;28;20079;-62
2022/12/29 05:13:24;;;;;;;53.95;39.42;;;11.60;1.00;;;;;;5030448;28;20033;-62
2022/12/29 05:15:53;;;;;;;59.33;41.88;;;11.40;1.00;;;;;;5022522;28;20549;-62
2022/12/29 05:18:19;;;;;;;56.95;38.17;;;11.40;1.00;;;;;;5024969;28;20030;-62
2022/12/29 05:20:46;;;;;;;56.15;39.92;;;11.50;1.00;;;;;;5029059;28;20040;-62
2022/12/29 05:23:13;;;;;;;62.22;41.15;;;11.50;1.00;;;;;;5031352;28;20057;-62
2022/12/29 05:25:38;;;;;;;59.08;41.22;;;11.50;1.00;;;;;;5031684;28;20025;-62
2022/12/29 05:28:04;;;;;;;57.60;40.33;;;11.50;1.00;;;;;;5031139;28;20479;-62
2022/12/29 05:30:30;;;;;;;57.30;39.00;;;11.50;1.00;;;;;;5028826;28;20383;-62
2022/12/29 05:32:55;;;;;;;59.50;41.22;;;11.40;1.00;;;;;;5030277;28;20383;-62
2022/12/29 05:35:38;;;;;;;62.40;41.28;;;11.60;1.00;;;;;;5028931;28;20464;-62
2022/12/29 05:38:03;;;;;;;53.55;38.58;;;11.50;1.00;;;;;;5029000;28;20045;-60
2022/12/29 05:40:29;;;;;;;62.92;41.50;;;11.50;1.00;;;;;;5028410;28;20068;-62
2022/12/29 05:42:55;;;;;;;57.05;39.15;;;11.50;1.00;;;;;;5031936;28;20017;-62
2022/12/29 05:45:21;;;;;;;54.88;38.78;;;11.50;1.00;;;;;;5015615;28;20116;-62
2022/12/29 05:47:46;;;;;;;60.00;40.30;;;11.50;1.00;;;;;;5035346;28;20117;-62
2022/12/29 05:50:12;;;;;;;58.53;39.85;;;11.50;1.00;;;;;;5025178;28;20348;-62
2022/12/29 05:52:38;;;;;;;66.93;42.38;;;11.50;1.00;;;;;;5035144;28;20017;-62
2022/12/29 05:55:04;;;;;;;56.75;40.22;;;11.50;1.00;;;;;;5027511;28;20045;-62
2022/12/29 05:57:29;;;;;;;56.72;39.63;;;11.50;1.00;;;;;;5020288;28;20021;-62
2022/12/29 05:59:55;;;;;;;58.78;39.65;;;11.50;1.00;;;;;;5033407;28;20441;-61
2022/12/29 06:02:21;;;;;;;57.47;40.22;;;11.50;1.00;;;;;;5033267;28;20087;-62
2022/12/29 06:04:46;;;;;;;56.33;38.47;;;11.50;1.00;;;;;;5033019;28;20099;-62
2022/12/29 06:07:12;;;;;;;60.05;40.78;;;11.50;1.00;;;;;;5034459;28;20088;-62
2022/12/29 06:09:38;;;;;;;60.85;39.40;;;11.50;1.00;;;;;;5032841;28;20106;-62
2022/12/29 06:12:04;;;;;;;59.78;40.50;;;11.60;1.00;;;;;;5034675;28;20098;-62
2022/12/29 06:14:30;;;;;;;56.17;39.33;;;11.50;1.00;;;;;;5031966;28;20121;-62
2022/12/29 06:16:55;;;;;;;53.15;39.47;;;11.50;1.00;;;;;;5022272;28;20451;-62
2022/12/29 06:19:21;;;;;;;59.53;40.90;;;11.50;1.00;;;;;;5033728;28;20044;-62
2022/12/29 06:21:46;;;;;;;56.17;40.20;;;11.40;1.00;;;;;;5034550;28;20108;-62
2022/12/29 06:24:12;;;;;;;53.97;37.50;;;11.50;1.00;;;;;;5028727;28;20127;-62
2022/12/29 06:26:38;;;;;;;57.15;38.85;;;11.50;1.00;;;;;;5032975;28;20018;-61
2022/12/29 06:29:04;;;;;;;57.60;38.53;;;11.50;1.00;;;;;;5028185;28;20527;-62
2022/12/29 06:31:30;;;;;;;56.42;39.42;;;11.50;1.00;;;;;;5031069;28;20045;-62
2022/12/29 06:33:56;;;;;;;59.83;40.88;;;11.50;1.00;;;;;;5029517;28;20061;-62
2022/12/29 06:36:21;;;;;;;54.15;37.55;;;11.50;1.00;;;;;;5028993;28;20033;-62
2022/12/29 06:38:47;;;;;;;55.90;38.80;;;11.50;1.00;;;;;;5033140;28;20053;-62
2022/12/29 06:41:12;;;;;;;53.72;36.80;;;11.50;1.00;;;;;;5032250;28;20095;-62
2022/12/29 06:43:38;;;;;;;53.63;39.47;;;11.50;1.00;;;;;;5033445;28;20053;-62
2022/12/29 06:46:04;;;;;;;55.55;39.20;;;11.50;1.00;;;;;;5033391;28;20034;-62
2022/12/29 06:48:30;;;;;;;56.47;40.28;;;11.50;1.00;;;;;;5030857;28;20124;-62
2022/12/29 06:50:56;;;;;;;57.67;38.25;;;11.50;1.00;;;;;;5033522;28;20179;-62
2022/12/29 06:53:21;;;;;;;59.05;38.45;;;11.50;1.00;;;;;;5031937;28;20032;-62
2022/12/29 06:55:56;;;;;;;53.63;37.08;;;11.50;1.00;;;;;;5033779;28;20395;-62
2022/12/29 06:58:22;;;;;;;;;;;11.40;1.00;;;;;;5029686;28;20048;-62
2022/12/29 07:00:48;;;;;;;53.60;37.65;;;11.50;1.00;;;;;;5033215;28;20002;-62
2022/12/29 07:03:13;;;;;;;55.83;38.38;;;11.50;1.00;;;;;;5020278;28;20494;-61
2022/12/29 07:05:39;;;;;;;57.20;39.88;;;11.50;1.00;;;;;;5030533;28;20021;-61
2022/12/29 07:08:05;;;;;;;61.88;41.45;;;11.50;1.00;;;;;;5032211;28;20013;-61
2022/12/29 07:10:31;;;;;;;56.67;37.67;;;11.50;1.00;;;;;;5032006;28;20017;-62
2022/12/29 07:12:57;;;;;;;53.63;39.95;;;11.50;1.00;;;;;;5032722;28;20025;-62
2022/12/29 07:15:23;;;;;;;61.85;40.95;;;11.50;1.00;;;;;;5032619;28;20638;-61
2022/12/29 07:17:49;;;;;;;57.67;39.17;;;11.50;1.00;;;;;;5031605;28;20029;-62
2022/12/29 07:20:15;;;;;;;61.17;42.08;;;11.50;1.00;;;;;;5032354;28;20072;-61
2022/12/29 07:22:41;;;;;;;57.33;41.13;;;11.50;1.00;;;;;;5032900;28;20085;-62
2022/12/29 07:25:08;;;;;;;57.50;39.60;;;11.50;1.00;;;;;;5031545;28;20076;-62
2022/12/29 07:27:33;;;;;;;58.35;39.78;;;11.50;1.00;;;;;;5032508;28;20032;-61
2022/12/29 07:29:59;;;;;;;58.42;40.13;;;11.50;1.00;;;;;;5032329;28;20021;-61
2022/12/29 07:32:25;;;;;;;60.17;40.58;;;11.50;1.00;;;;;;5032563;28;20029;-62
2022/12/29 07:34:50;;;;;;;61.05;40.10;;;11.50;1.00;;;;;;5032239;28;20053;-61
2022/12/29 07:37:16;;;;;;;63.22;42.75;;;11.60;1.00;;;;;;5030259;28;20497;-61
2022/12/29 07:39:42;;;;;;;62.92;40.67;;;11.40;1.00;;;;;;5032028;28;20132;-61
2022/12/29 07:42:08;;;;;;;62.08;42.13;;;11.40;1.00;;;;;;5026221;28;20079;-61
2022/12/29 07:44:34;;;;;;;64.72;41.47;;;11.50;1.00;;;;;;5032073;28;20118;-61
2022/12/29 07:46:59;;;;;;;60.65;40.65;;;11.60;1.00;;;;;;5031255;28;20029;-62
2022/12/29 07:49:25;;;;;;;58.03;41.58;;;11.70;1.00;;;;;;5029829;28;20049;-61
2022/12/29 07:51:51;;;;;;;58.22;40.45;;;11.60;1.00;;;;;;5028121;28;20021;-61
2022/12/29 07:54:19;;;;;;;59.15;41.55;;;11.70;1.00;;;;;;5030297;28;20104;-61
2022/12/29 07:56:45;;;;;;;57.20;39.78;;;11.60;1.00;;;;;;5026511;28;20032;-62
2022/12/29 07:59:14;;;;;;;61.88;42.10;;;11.50;1.00;;;;;;5016357;28;20036;-61
2022/12/29 08:01:40;;;;;;;62.03;40.65;;;11.60;1.00;;;;;;5024758;28;20514;-61
2022/12/29 08:04:05;;;;;;;61.85;40.55;;;11.60;1.00;;;;;;5030843;28;20013;-62
2022/12/29 08:06:31;;;;;;;59.08;42.38;;;11.60;1.00;;;;;;5031938;28;20040;-61
2022/12/29 08:08:57;;;;;;;63.28;42.00;;;11.70;1.00;;;;;;5032253;28;20013;-62
2022/12/29 08:11:23;;;;;;;62.05;40.47;;;11.70;1.00;;;;;;5020773;28;20502;-61
2022/12/29 08:13:49;;;;;;;57.10;39.40;;;11.80;1.00;;;;;;5032183;28;20061;-61
2022/12/29 08:16:14;;;;;;;58.13;40.42;;;11.80;1.00;;;;;;5032013;28;20498;-61
2022/12/29 08:18:40;;;;;;;59.83;39.10;;;11.80;1.00;;;;;;5031880;28;20040;-62
2022/12/29 08:21:06;;;;;;;55.08;38.50;;;11.80;1.00;;;;;;5030398;28;20128;-61
2022/12/29 08:23:32;;;;;;;54.17;37.40;;;11.80;1.00;;;;;;5032047;28;20502;-61
2022/12/29 08:26:03;;;;;;;58.03;39.15;;;11.70;1.00;;;;;;5030466;28;20095;-61
2022/12/29 08:28:28;;;;;;;58.17;37.40;;;11.60;1.00;;;;;;5021988;28;20025;-62
2022/12/29 08:30:58;;;;;;;57.88;37.83;;;11.70;1.00;;;;;;5030660;28;20368;-62
2022/12/29 08:33:23;;;;;;;53.13;36.67;;;11.60;1.00;;;;;;5031668;28;20036;-62
2022/12/29 08:35:49;;;;;;;60.63;38.55;;;11.60;1.00;;;;;;5028421;28;20029;-61
2022/12/29 08:38:15;;;;;;;57.45;37.47;;;11.70;1.00;;;;;;5031334;28;20083;-62
2022/12/29 08:40:41;;;;;;;55.30;35.55;;;11.70;1.00;;;;;;5030190;28;20037;-62
2022/12/29 08:43:07;;;;;;;51.95;37.15;;;11.60;1.00;;;;;;5031633;28;20032;-61
2022/12/29 08:45:38;;;;;;;50.63;35.70;;;11.70;1.00;;;;;;5030653;28;20030;-61
2022/12/29 08:51:25;;;;;;;44.67;33.70;;;11.80;1.00;;;;;;5027831;28;20051;-61
2022/12/29 08:53:51;;;;;;;54.13;36.50;;;11.80;1.00;;;;;;5031519;28;20025;-62
2022/12/29 08:56:17;;;;;;;48.55;34.58;;;11.80;1.00;;;;;;5031436;28;20080;-61
2022/12/29 08:58:42;;;;;;;55.05;38.20;;;11.90;1.00;;;;;;5031442;28;20487;-61
2022/12/29 09:01:09;;;;;;;52.38;34.70;;;11.90;1.00;;;;;;5025742;28;20124;-62
2022/12/29 09:03:35;;;;;;;55.83;37.42;;;12.00;1.00;;;;;;5031713;28;20108;-61
2022/12/29 09:06:00;;;;;;;48.83;34.60;;;12.00;1.00;;;;;;5022374;28;20124;-62
2022/12/29 09:08:26;;;;;;;54.33;37.42;;;12.00;1.00;;;;;;5031538;28;20065;-62
2022/12/29 09:10:52;;;;;;;47.47;35.72;;;12.00;1.00;;;;;;5020172;28;20395;-62
2022/12/29 09:13:18;;;;;;;52.67;36.70;;;12.00;1.00;;;;;;5033382;28;20487;-62
2022/12/29 09:15:44;;;;;;;49.78;36.50;;;12.10;1.00;;;;;;5023132;28;20065;-62
2022/12/29 09:18:11;;;;;;;52.60;37.25;;;11.90;1.00;;;;;;5034192;28;20163;-62
2022/12/29 09:21:32;;;;;;;52.95;36.10;;;12.00;1.00;;;;;;5034862;28;20033;-61
2022/12/29 09:23:58;;;;;;;53.85;37.55;;;12.00;1.00;;;;;;5028015;28;20115;-61
2022/12/29 09:26:23;;;;;;;49.55;36.47;;;11.90;1.00;;;;;;5033944;28;20061;-61
2022/12/29 09:28:49;;;;;;;55.97;37.28;;;12.00;1.00;;;;;;5028716;28;20578;-62
2022/12/29 09:31:15;;;;;;;55.72;37.13;;;12.00;1.00;;;;;;5033354;28;20120;-61
2022/12/29 09:33:41;;;;;;;50.90;35.20;;;12.00;1.00;;;;;;5035052;28;20116;-62
2022/12/29 09:36:08;;;;;;;55.17;37.63;;;12.00;1.00;;;;;;5033156;28;20475;-61
2022/12/29 09:38:33;;;;;;;59.97;39.63;;;12.00;1.00;;;;;;5034378;28;20072;-62
2022/12/29 09:41:18;;;;;;;56.83;40.45;;;12.00;1.00;;;;;;5030858;28;20042;-61
2022/12/29 09:44:06;;;;;;;61.70;40.47;;;12.00;1.00;;;;;;5034827;28;20044;-61
2022/12/29 09:46:36;;;;;;;61.85;42.13;;;12.10;1.00;;;;;;5023751;28;20026;-61
2022/12/29 09:49:26;;;;;;;62.03;42.78;;;12.00;1.00;;;;;;5021371;28;20025;-61
2022/12/29 09:51:57;;;;;;;65.68;43.58;;;12.10;1.00;;;;;;5023418;28;20124;-61
2022/12/29 09:55:16;;;;;;;68.28;44.70;;;12.20;1.00;;;;;;5034889;28;20044;-61
2022/12/29 09:58:02;;;;;;;70.53;46.88;;;12.20;1.00;;;;;;4994934;28;20041;-61
2022/12/29 10:00:50;;;;;;;72.95;48.13;;;12.20;1.00;;;;;;5029718;28;20041;-61
2022/12/29 10:03:18;;;;;;;72.15;46.67;;;12.30;1.00;;;;;;5032730;28;20072;-61
2022/12/29 10:05:52;;;;;;;71.53;46.78;;;12.30;1.00;;;;;;5029937;28;20040;-61
2022/12/29 10:08:32;;;;;;;70.00;47.05;;;12.40;1.00;;;;;;5040352;28;20029;-62
2022/12/29 10:11:25;;;;;;;68.07;46.50;;;12.40;1.00;;;;;;5034622;28;20395;-61
2022/12/29 10:14:32;;;;;;;67.88;46.50;;;12.40;1.00;;;;;;5044575;28;20025;-62
2022/12/29 10:17:23;;;;;;;74.20;47.10;;;12.40;1.00;;;;;;5033634;28;20560;-61
2022/12/29 10:20:10;;;;;;;71.32;47.88;;;12.50;1.00;;;;;;5020519;28;20042;-62
2022/12/29 10:23:01;;;;;;;73.07;46.85;;;12.50;1.00;;;;;;5019812;28;20063;-62
2022/12/29 10:25:32;;;;;;;69.97;47.42;;;12.50;1.00;;;;;;5033623;28;20041;-61
2022/12/29 10:28:01;;;;;;;69.97;47.00;;;12.50;1.00;;;;;;5022567;28;20037;-61
2022/12/29 10:30:27;;;;;;;67.57;46.78;;;12.50;1.00;;;;;;5030757;28;20498;-62
2022/12/29 10:32:57;;;;;;;69.13;45.78;;;12.70;1.00;;;;;;5032111;28;20025;-61
2022/12/29 10:35:35;;;;;;;70.75;47.75;;;12.70;1.00;;;;;;5033344;28;20033;-62
2022/12/29 10:38:01;;;;;;;69.53;48.13;;;12.70;1.00;;;;;;5037661;28;20028;-62
2022/12/29 10:40:51;;;;;;;69.40;46.88;;;12.60;1.00;;;;;;5043069;28;20054;-62
2022/12/29 10:43:26;;;;;;;71.75;48.60;;;12.70;1.00;;;;;;5031734;28;20080;-61
2022/12/29 10:46:12;;;;;;;70.07;49.08;;;12.60;1.00;;;;;;5026487;28;20527;-60
2022/12/29 10:48:38;;;;;;;69.65;47.33;;;12.60;1.00;;;;;;5021589;28;20026;-60
2022/12/29 10:51:07;;;;;;;66.78;47.40;;;12.60;1.00;;;;;;5030425;28;20492;-60
2022/12/29 10:53:46;;;;;;;73.45;50.58;;;12.70;1.00;;;;;;5033287;28;20036;-60
2022/12/29 10:56:34;;;;;;;72.25;48.30;;;12.60;1.00;;;;;;5031915;28;20129;-60
2022/12/29 10:59:07;;;;;;;70.18;49.67;;;12.60;1.00;;;;;;5032618;28;20550;-60
2022/12/29 11:01:50;;;;;;;76.75;50.63;;;12.60;1.00;;;;;;5029582;28;20033;-60
2022/12/29 11:04:44;;;;;;;71.55;48.72;;;12.70;1.00;;;;;;5030942;28;20060;-60
2022/12/29 11:07:11;;;;;;;72.32;50.15;;;12.70;1.00;;;;;;5034879;28;20064;-60
2022/12/29 11:09:39;;;;;;;73.20;50.15;;;12.70;1.00;;;;;;5031675;28;20112;-60
2022/12/29 11:12:24;;;;;;;73.40;50.38;;;12.60;1.00;;;;;;5035477;28;20467;-60
2022/12/29 11:15:01;;;;;;;73.03;49.95;;;12.70;1.00;;;;;;5040357;28;20095;-60
2022/12/29 11:17:27;;;;;;;66.72;47.38;;;12.70;1.00;;;;;;5019085;28;20024;-60
2022/12/29 11:19:52;;;;;;;71.38;49.35;;;12.50;1.00;;;;;;5032877;28;20053;-60
2022/12/29 11:22:25;;;;;;;72.00;47.95;;;12.60;1.00;;;;;;5033050;28;20018;-61
2022/12/29 11:24:53;;;;;;;68.15;47.55;;;12.60;1.00;;;;;;5021186;28;20032;-61
2022/12/29 11:27:22;;;;;;;66.68;45.25;;;12.40;1.00;;;;;;5030268;28;20144;-61
2022/12/29 11:29:49;;;;;;;66.43;46.17;;;12.60;1.00;;;;;;5032710;28;20026;-61
2022/12/29 11:32:26;;;;;;;72.40;49.30;;;12.70;1.00;;;;;;5032767;28;20529;-62
2022/12/29 11:34:52;;;;;;;65.50;45.63;;;12.80;1.00;;;;;;5031051;28;20040;-62
2022/12/29 11:37:34;;;;;;;63.97;44.95;;;12.90;1.00;;;;;;5032804;28;20029;-62
2022/12/29 11:40:07;;;;;;;67.32;46.45;;;12.80;1.00;;;;;;5024897;28;20048;-62
2022/12/29 11:42:42;;;;;;;65.40;46.42;;;12.80;1.00;;;;;;5032825;28;20506;-61
2022/12/29 11:45:14;;;;;;;;;;;12.80;1.00;;;;;;5033005;28;20032;-62
2022/12/29 11:47:48;;;;;;;66.30;44.75;;;12.60;1.00;;;;;;5030626;28;19917;-61
2022/12/29 11:50:29;;;;;;;66.80;44.55;;;12.60;1.00;;;;;;5032660;28;20037;-61
2022/12/29 11:53:17;;;;;;;64.50;43.90;;;12.60;1.00;;;;;;5025917;28;20068;-61
2022/12/29 11:55:55;;;;;;;66.65;43.42;;;12.60;1.00;;;;;;5032272;28;20029;-61
2022/12/29 12:01:40;;;;;;;63.85;44.60;;;12.70;1.00;;;;;;5022820;28;20522;-61
2022/12/29 12:04:16;;;;;;;63.97;45.53;;;12.70;1.00;;;;;;5032524;28;20029;-61
2022/12/29 12:07:05;;;;;;;61.10;42.67;;;12.60;1.00;;;;;;5031830;28;20087;-61
2022/12/29 12:09:58;;;;;;;63.15;45.25;;;12.60;1.00;;;;;;5031679;28;20084;-61
2022/12/29 12:12:23;;;;;;;60.65;45.22;;;12.70;1.00;;;;;;5038004;28;20045;-61
2022/12/29 12:14:59;;;;;;;57.80;43.38;;;12.60;1.00;;;;;;5034859;28;20032;-61
2022/12/29 12:17:37;;;;;;;61.22;43.20;;;12.60;1.00;;;;;;5032008;28;20029;-61
2022/12/29 12:20:27;;;;;;;59.17;42.78;;;12.60;1.00;;;;;;5027022;28;20509;-61
2022/12/29 12:23:08;;;;;;;61.13;42.22;;;12.60;1.00;;;;;;5019824;28;20479;-61
2022/12/29 12:25:48;;;;;;;58.65;42.28;;;12.70;1.00;;;;;;5029052;28;20025;-61
2022/12/29 12:28:24;;;;;;;53.30;38.55;;;12.60;1.00;;;;;;5030194;28;20074;-61
2022/12/29 12:30:56;;;;;;;53.25;38.33;;;12.50;1.00;;;;;;5030588;28;20045;-61
2022/12/29 12:33:37;;;;;;;54.13;41.20;;;12.60;1.00;;;;;;5031577;28;20112;-61
2022/12/29 12:36:49;;;;;;;54.50;38.85;;;12.60;1.00;;;;;;5031576;28;20029;-61
2022/12/29 12:39:56;;;;;;;55.45;40.60;;;12.80;1.00;;;;;;5020002;28;20058;-61
2022/12/29 12:42:59;;;;;;;55.25;39.42;;;12.90;1.00;;;;;;5027122;28;20025;-61
2022/12/29 12:45:57;;;;;;;55.40;39.50;;;13.00;1.00;;;;;;5029075;28;20034;-61
2022/12/29 12:48:34;;;;;;;51.67;39.15;;;13.00;1.00;;;;;;5030971;28;20507;-62
2022/12/29 12:51:20;;;;;;;53.22;39.83;;;12.90;1.00;;;;;;5024565;28;20025;-62
2022/12/29 12:53:52;;;;;;;50.42;38.60;;;12.80;1.00;;;;;;5031231;28;20030;-61
2022/12/29 12:56:21;;;;;;;56.47;42.47;;;12.80;1.00;;;;;;5029732;28;20025;-61
2022/12/29 12:58:56;;;;;;;54.65;39.00;;;12.80;1.00;;;;;;5031468;28;20518;-61
2022/12/29 13:01:32;;;;;;;48.95;38.30;;;12.70;1.00;;;;;;5031199;28;20040;-61
2022/12/29 13:04:30;;;;;;;55.58;40.42;;;12.80;1.00;;;;;;5031738;28;20040;-61
2022/12/29 13:07:34;;;;;;;49.45;37.72;;;12.90;1.00;;;;;;5007247;28;20034;-61
2022/12/29 13:10:23;;;;;;;55.15;40.75;;;12.80;1.00;;;;;;5029847;28;20029;-61
2022/12/29 13:13:03;;;;;;;53.67;40.15;;;12.90;1.00;;;;;;5041582;28;20179;-61
2022/12/29 13:15:57;;;;;;;52.08;36.95;;;13.00;1.00;;;;;;5024608;28;20053;-61
2022/12/29 13:18:50;;;;;;;53.75;39.50;;;13.00;1.00;;;;;;5029861;28;20072;-61
2022/12/29 13:21:46;;;;;;;53.03;37.72;;;13.00;1.00;;;;;;5031258;28;20533;-61
2022/12/29 13:24:38;;;;;;;48.72;37.92;;;13.10;1.00;;;;;;5031050;28;20064;-61
2022/12/29 13:27:25;;;;;;;49.15;38.70;;;13.00;1.00;;;;;;5025805;28;20471;-61
2022/12/29 13:30:02;;;;;;;51.38;37.67;;;12.90;1.00;;;;;;5031094;28;20502;-61
2022/12/29 13:32:35;;;;;;;49.08;37.50;;;12.90;1.00;;;;;;5031283;28;20072;-61
2022/12/29 13:35:17;;;;;;;49.53;36.78;;;12.90;1.00;;;;;;5026195;28;20069;-61
2022/12/29 13:38:03;;;;;;;49.45;37.05;;;12.90;1.00;;;;;;5030182;28;20032;-61
2022/12/29 13:40:34;;;;;;;46.22;35.72;;;12.90;1.00;;;;;;5025424;28;20057;-61
2022/12/29 13:43:01;;;;;;;49.05;36.70;;;13.00;1.00;;;;;;5031296;28;20048;-61
2022/12/29 13:45:31;;;;;;;54.63;38.70;;;13.00;1.00;;;;;;5030880;28;20076;-62
2022/12/29 13:48:06;;;;;;;49.90;38.25;;;12.90;1.00;;;;;;5030924;28;20097;-61
2022/12/29 13:50:38;;;;;;;48.20;37.88;;;13.00;1.00;;;;;;5028592;28;20029;-61